createdAt,value
2018-04-02T00:02:18.214Z,99873.69
2018-04-02T00:04:45.703Z,99872.94
2018-04-02T00:07:13.184Z,99873.48
2018-04-02T00:09:40.668Z,99873.69
2018-04-02T00:12:08.128Z,99874.52
2018-04-02T00:14:35.627Z,99879.37
2018-04-02T00:17:03.103Z,99874.08
2018-04-02T00:19:30.569Z,99872.75
2018-04-02T00:21:58.060Z,99865.95
2018-04-02T00:24:25.556Z,99864.67
2018-04-02T00:26:53.032Z,99858.52
2018-04-02T00:29:20.490Z,99859.88
2018-04-02T00:31:47.974Z,99853.31
2018-04-02T00:34:15.451Z,99857.23
2018-04-02T00:36:42.931Z,99849.56
2018-04-02T00:39:10.424Z,99853.42
2018-04-02T00:41:37.927Z,99850.71
2018-04-02T00:44:05.393Z,99844.16
2018-04-02T00:46:32.878Z,99836.49
2018-04-02T00:49:00.351Z,99844.03
2018-04-02T00:51:27.835Z,99837.88
2018-04-02T00:53:55.311Z,99842.74
2018-04-02T00:56:22.808Z,99839.17
2018-04-02T00:58:50.297Z,99836.35
2018-04-02T01:01:17.795Z,99831.88
2018-04-02T01:03:45.265Z,99829.25
2018-04-02T01:06:12.756Z,99827.30
2018-04-02T01:08:40.230Z,99830.70
2018-04-02T01:11:07.715Z,99829.25
2018-04-02T01:13:35.184Z,99827.45
2018-04-02T01:16:02.675Z,99817.80
2018-04-02T01:18:30.143Z,99817.62
2018-04-02T01:20:57.632Z,99810.30
2018-04-02T01:23:25.096Z,99809.53
2018-04-02T01:25:52.574Z,99806.57
2018-04-02T01:28:20.049Z,99806.83
2018-04-02T01:30:47.541Z,99802.95
2018-04-02T01:33:15.016Z,99803.45
2018-04-02T01:35:42.499Z,99801.61
2018-04-02T01:38:09.963Z,99796.06
2018-04-02T01:40:37.459Z,99795.97
2018-04-02T01:43:04.928Z,99796.94
2018-04-02T01:45:32.396Z,99794.48
2018-04-02T01:47:59.888Z,99789.58
2018-04-02T01:50:27.363Z,99786.94
2018-04-02T01:52:54.852Z,99787.45
2018-04-02T01:55:22.328Z,99786.02
2018-04-02T01:57:49.823Z,99786.88
2018-04-02T02:00:17.306Z,99781.84
2018-04-02T02:02:44.795Z,99776.89
2018-04-02T02:05:12.284Z,99772.72
2018-04-02T02:07:39.768Z,99767.27
2018-04-02T02:10:07.236Z,99763.70
2018-04-02T02:12:34.723Z,99760.62
2018-04-02T02:15:02.197Z,99761.36
2018-04-02T02:17:29.689Z,99752.80
2018-04-02T02:19:57.160Z,99752.89
2018-04-02T02:22:24.656Z,99752.79
2018-04-02T02:24:52.119Z,99755.47
2018-04-02T02:27:19.607Z,99756.39
2018-04-02T02:29:47.071Z,99753.52
2018-04-02T02:32:14.556Z,99747.76
2018-04-02T02:34:42.022Z,99751.48
2018-04-02T02:37:09.515Z,99745.94
2018-04-02T02:39:36.995Z,99738.86
2018-04-02T02:42:04.480Z,99742.65
2018-04-02T02:44:31.956Z,99741.02
2018-04-02T02:46:59.452Z,99740.13
2018-04-02T02:49:26.931Z,99741.66
2018-04-02T02:51:54.429Z,99738.31
2018-04-02T02:54:21.884Z,99740.61
2018-04-02T02:56:49.372Z,99741.44
2018-04-02T02:59:16.841Z,99741.70
2018-04-02T03:01:44.331Z,99737.23
2018-04-02T03:04:11.795Z,99735.83
2018-04-02T03:06:39.291Z,99734.80
2018-04-02T03:09:06.757Z,99733.13
2018-04-02T03:11:34.221Z,99737.42
2018-04-02T03:14:01.707Z,99732.76
2018-04-02T03:16:29.171Z,99731.94
2018-04-02T03:18:56.652Z,99728.10
2018-04-02T03:21:24.112Z,99718.72
2018-04-02T03:23:51.599Z,99719.97
2018-04-02T03:26:19.064Z,99719.88
2018-04-02T03:28:46.548Z,99715.30
2018-04-02T03:31:14.022Z,99713.91
2018-04-02T03:33:41.503Z,99709.48
2018-04-02T03:36:08.959Z,99708.69
2018-04-02T03:38:36.436Z,99701.20
2018-04-02T03:41:03.898Z,99701.63
2018-04-02T03:43:31.370Z,99698.34
2018-04-02T03:45:58.835Z,99696.87
2018-04-02T03:48:26.323Z,99697.19
2018-04-02T03:50:53.779Z,99683.99
2018-04-02T03:53:21.260Z,99682.05
2018-04-02T03:55:48.720Z,99683.89
2018-04-02T03:58:16.193Z,99684.08
2018-04-02T04:00:43.658Z,99682.89
2018-04-02T04:03:11.153Z,99676.14
2018-04-02T04:05:38.647Z,99673.41
2018-04-02T04:08:06.131Z,99674.83
2018-04-02T04:10:33.599Z,99668.27
2018-04-02T04:13:01.098Z,99665.21
2018-04-02T04:15:28.560Z,99663.95
2018-04-02T04:17:56.035Z,99663.98
2018-04-02T04:20:23.500Z,99662.64
2018-04-02T04:22:50.974Z,99660.13
2018-04-02T04:25:18.475Z,99656.81
2018-04-02T04:27:45.976Z,99659.06
2018-04-02T04:30:13.435Z,99651.11
2018-04-02T04:32:40.896Z,99649.72
2018-04-02T04:35:08.379Z,99655.16
2018-04-02T04:37:35.843Z,99655.80
2018-04-02T04:40:03.315Z,99644.52
2018-04-02T04:42:30.775Z,99642.50
2018-04-02T04:44:58.262Z,99645.39
2018-04-02T04:47:25.723Z,99645.27
2018-04-02T04:49:53.204Z,99642.77
2018-04-02T04:52:20.666Z,99641.51
2018-04-02T04:54:48.142Z,99636.55
2018-04-02T04:57:15.607Z,99633.92
2018-04-02T04:59:43.078Z,99640.52
2018-04-02T05:02:10.539Z,99644.29
2018-04-02T05:04:38.024Z,99642.84
2018-04-02T05:07:05.479Z,99633.73
2018-04-02T05:09:33.344Z,99634.59
2018-04-02T05:12:01.227Z,99630.96
2018-04-02T05:14:29.095Z,99628.88
2018-04-02T05:16:57.560Z,99626.11
2018-04-02T05:19:25.291Z,99626.21
2018-04-02T05:21:52.775Z,99622.98
2018-04-02T05:24:20.286Z,99627.30
2018-04-02T05:26:47.747Z,99626.78
2018-04-02T05:29:15.230Z,99628.88
2018-04-02T05:31:42.682Z,99621.83
2018-04-02T05:34:10.419Z,99624.03
2018-04-02T05:36:38.204Z,99620.06
2018-04-02T05:39:06.850Z,99625.77
2018-04-02T05:41:34.383Z,99623.14
2018-04-02T05:44:02.882Z,99613.66
2018-04-02T05:46:30.340Z,99616.98
2018-04-02T05:48:58.107Z,99619.09
2018-04-02T05:51:26.500Z,99616.55
2018-04-02T05:53:54.243Z,99606.02
2018-04-02T05:56:21.890Z,99610.11
2018-04-02T05:58:49.867Z,99596.30
2018-04-02T06:01:17.371Z,99593.33
2018-04-02T06:03:45.484Z,99597.42
2018-04-02T06:06:12.978Z,99600.34
2018-04-02T06:08:40.438Z,99592.99
2018-04-02T06:11:07.988Z,99590.49
2018-04-02T06:13:36.226Z,99590.72
2018-04-02T06:16:04.260Z,99584.48
2018-04-02T06:18:32.069Z,99590.08
2018-04-02T06:20:59.643Z,99584.01
2018-04-02T06:23:27.112Z,99587.97
2018-04-02T06:25:54.638Z,99588.98
2018-04-02T06:28:22.160Z,99582.46
2018-04-02T06:30:50.011Z,99583.41
2018-04-02T06:33:17.474Z,99583.28
2018-04-02T06:35:44.983Z,99576.45
2018-04-02T06:38:12.451Z,99574.81
2018-04-02T06:40:39.974Z,99576.59
2018-04-02T06:43:07.438Z,99573.16
2018-04-02T06:45:35.152Z,99579.94
2018-04-02T06:48:03.979Z,99579.84
2018-04-02T06:50:31.540Z,99577.69
2018-04-02T06:52:59.264Z,99568.27
2018-04-02T06:55:27.012Z,99573.81
2018-04-02T06:57:54.467Z,99573.06
2018-04-02T07:00:21.944Z,99568.91
2018-04-02T07:02:49.477Z,99570.27
2018-04-02T07:05:18.254Z,99576.31
2018-04-02T07:07:45.819Z,99570.77
2018-04-02T07:10:13.327Z,99562.30
2018-04-02T07:12:41.151Z,99567.35
2018-04-02T07:15:08.969Z,99557.98
2018-04-02T07:17:36.457Z,99557.62
2018-04-02T07:20:03.955Z,99552.21
2018-04-02T07:22:31.437Z,99542.25
2018-04-02T07:24:59.211Z,99536.05
2018-04-02T07:27:26.688Z,99531.27
2018-04-02T07:29:54.203Z,99532.72
2018-04-02T07:32:22.926Z,99535.41
2018-04-02T07:34:50.387Z,99533.56
2018-04-02T07:37:17.860Z,99533.32
2018-04-02T07:39:45.548Z,99526.57
2018-04-02T07:42:13.429Z,99533.70
2018-04-02T07:44:41.452Z,99533.50
2018-04-02T07:47:08.998Z,99535.70
2018-04-02T07:49:37.847Z,99532.53
2018-04-02T07:52:06.314Z,99538.30
2018-04-02T07:54:34.192Z,99533.15
2018-04-02T07:57:01.796Z,99532.94
2018-04-02T07:59:29.313Z,99532.62
2018-04-02T08:01:57.247Z,99528.75
2018-04-02T08:04:25.867Z,99523.73
2018-04-02T08:06:53.349Z,99527.63
2018-04-02T08:09:20.809Z,99532.30
2018-04-02T08:11:48.766Z,99520.14
2018-04-02T08:14:18.494Z,99526.31
2018-04-02T08:16:46.339Z,99522.52
2018-04-02T08:19:13.839Z,99521.64
2018-04-02T08:21:41.432Z,99519.16
2018-04-02T08:24:09.343Z,99518.14
2018-04-02T08:26:36.899Z,99519.82
2018-04-02T08:29:05.493Z,99508.77
2018-04-02T08:31:33.458Z,99508.36
2018-04-02T08:36:38.561Z,99508.38
2018-04-02T08:39:06.411Z,99513.41
2018-04-02T08:41:34.453Z,99509.17
2018-04-02T08:44:02.209Z,99514.36
2018-04-02T08:46:30.868Z,99509.33
2018-04-02T08:48:58.339Z,99511.91
2018-04-02T08:51:26.336Z,99512.73
2018-04-02T08:53:54.263Z,99508.80
2018-04-02T08:56:21.760Z,99512.83
2018-04-02T08:58:49.517Z,99509.31
2018-04-02T09:01:17.084Z,99495.67
2018-04-02T09:03:45.567Z,99499.71
2018-04-02T09:06:13.294Z,99492.95
2018-04-02T09:08:40.802Z,99489.78
2018-04-02T09:11:08.759Z,99487.08
2018-04-02T09:13:36.769Z,99485.62
2018-04-02T09:16:04.473Z,99481.16
2018-04-02T09:18:32.558Z,99470.05
2018-04-02T09:21:00.097Z,99463.99
2018-04-02T09:23:27.957Z,99456.67
2018-04-02T09:25:55.860Z,99454.77
2018-04-02T09:28:24.642Z,99448.86
2018-04-02T09:30:53.165Z,99441.31
2018-04-02T09:33:20.675Z,99442.55
2018-04-02T09:35:48.883Z,99437.66
2018-04-02T09:38:16.408Z,99433.73
2018-04-02T09:40:43.902Z,99434.16
2018-04-02T09:43:11.647Z,99430.94
2018-04-02T09:45:39.959Z,99430.86
2018-04-02T09:48:07.470Z,99419.36
2018-04-02T09:50:35.519Z,99415.06
2018-04-02T09:53:07.040Z,99409.04
2018-04-02T09:55:34.579Z,99404.73
2018-04-02T09:58:02.075Z,99408.80
2018-04-02T10:00:33.751Z,99407.02
2018-04-02T10:03:02.411Z,99402.84
2018-04-02T10:05:30.707Z,99402.91
2018-04-02T10:07:58.209Z,99397.70
2018-04-02T10:10:26.064Z,99396.82
2018-04-02T10:12:53.535Z,99393.75
2018-04-02T10:15:21.035Z,99385.58
2018-04-02T10:17:48.522Z,99385.91
2018-04-02T10:20:16.652Z,99383.65
2018-04-02T10:22:44.167Z,99369.45
2018-04-02T10:25:11.665Z,99357.69
2018-04-02T10:27:39.176Z,99352.33
2018-04-02T10:30:06.644Z,99347.52
2018-04-02T10:32:34.138Z,99342.09
2018-04-02T10:35:02.781Z,99340.30
2018-04-02T10:37:30.268Z,99343.63
2018-04-02T10:39:57.769Z,99342.52
2018-04-02T10:42:26.323Z,99339.32
2018-04-02T10:44:54.079Z,99334.62
2018-04-02T10:47:21.566Z,99333.42
2018-04-02T10:49:49.807Z,99329.27
2018-04-02T10:52:17.376Z,99335.20
2018-04-02T10:54:44.876Z,99317.98
2018-04-02T10:57:13.312Z,99314.67
2018-04-02T10:59:40.895Z,99303.33
2018-04-02T11:02:08.487Z,99292.93
2018-04-02T11:04:36.848Z,99290.03
2018-04-02T11:07:04.328Z,99292.98
2018-04-02T11:09:31.866Z,99290.89
2018-04-02T11:11:59.335Z,99287.13
2018-04-02T11:14:27.160Z,99288.46
2018-04-02T11:16:54.691Z,99279.64
2018-04-02T11:19:22.644Z,99272.15
2018-04-02T11:21:50.123Z,99271.40
2018-04-02T11:24:17.664Z,99261.45
2018-04-02T11:26:45.513Z,99261.28
2018-04-02T11:29:13.347Z,99254.59
2018-04-02T11:31:40.803Z,99254.94
2018-04-02T11:34:09.245Z,99237.42
2018-04-02T11:36:37.120Z,99236.92
2018-04-02T11:39:05.448Z,99238.72
2018-04-02T11:41:33.301Z,99231.63
2018-04-02T11:44:01.784Z,99216.89
2018-04-02T11:46:30.778Z,99221.84
2018-04-02T11:48:59.258Z,99211.38
2018-04-02T11:51:28.003Z,99211.37
2018-04-02T11:53:55.563Z,99215.89
2018-04-02T11:56:23.450Z,99217.41
2018-04-02T11:58:51.284Z,99216.81
2018-04-02T12:01:19.108Z,99222.38
2018-04-02T12:03:46.989Z,99215.06
2018-04-02T12:06:14.716Z,99215.37
2018-04-02T12:08:43.046Z,99216.23
2018-04-02T12:11:10.968Z,99206.14
2018-04-02T12:13:38.916Z,99204.69
2018-04-02T12:16:06.697Z,99197.50
2018-04-02T12:18:34.203Z,99200.11
2018-04-02T12:21:02.157Z,99187.25
2018-04-02T12:23:29.971Z,99188.15
2018-04-02T12:25:59.804Z,99185.49
2018-04-02T12:28:27.683Z,99180.84
2018-04-02T12:30:59.155Z,99178.31
2018-04-02T12:33:27.344Z,99161.64
2018-04-02T12:35:55.051Z,99160.61
2018-04-02T12:38:22.978Z,99155.75
2018-04-02T12:43:25.228Z,99137.78
2018-04-02T12:45:52.920Z,99138.65
2018-04-02T12:48:21.071Z,99140.02
2018-04-02T12:50:48.616Z,99139.48
2018-04-02T12:53:16.392Z,99135.68
2018-04-02T12:55:44.235Z,99124.11
2018-04-02T12:58:12.000Z,99122.20
2018-04-02T13:00:40.002Z,99118.67
2018-04-02T13:03:07.714Z,99118.92
2018-04-02T13:05:35.260Z,99112.66
2018-04-02T13:08:03.132Z,99104.52
2018-04-02T13:10:31.034Z,99102.87
2018-04-02T13:12:59.307Z,99098.94
2018-04-02T13:15:27.076Z,99088.63
2018-04-02T13:17:54.856Z,99084.66
2018-04-02T13:20:22.368Z,99085.03
2018-04-02T13:22:49.871Z,99080.73
2018-04-02T13:25:17.347Z,99080.87
2018-04-02T13:27:44.892Z,99077.89
2018-04-02T13:30:12.404Z,99078.86
2018-04-02T13:32:39.887Z,99074.96
2018-04-02T13:35:07.425Z,99066.67
2018-04-02T13:37:34.893Z,99070.70
2018-04-02T13:40:02.381Z,99066.44
2018-04-02T13:42:29.906Z,99071.75
2018-04-02T13:44:57.449Z,99072.05
2018-04-02T13:47:24.976Z,99055.95
2018-04-02T13:49:52.491Z,99060.58
2018-04-02T13:52:20.048Z,99049.95
2018-04-02T13:54:47.543Z,99042.91
2018-04-02T13:57:15.049Z,99031.64
2018-04-02T13:59:42.561Z,99035.97
2018-04-02T14:02:10.080Z,99020.42
2018-04-02T14:04:37.546Z,99024.02
2018-04-02T14:07:05.050Z,99018.77
2018-04-02T14:09:32.560Z,99008.31
2018-04-02T14:12:00.068Z,99007.44
2018-04-02T14:14:27.558Z,99002.55
2018-04-02T14:16:55.090Z,98998.36
2018-04-02T14:19:23.638Z,98996.27
2018-04-02T14:21:51.349Z,98988.05
2018-04-02T14:24:18.823Z,98984.66
2018-04-02T14:26:46.347Z,98977.02
2018-04-02T14:29:13.827Z,98971.74
2018-04-02T14:31:41.312Z,98961.41
2018-04-02T14:34:08.819Z,98957.95
2018-04-02T14:36:36.346Z,98951.11
2018-04-02T14:39:03.852Z,98953.06
2018-04-02T14:41:31.355Z,98943.81
2018-04-02T14:43:58.824Z,98936.27
2018-04-02T14:46:26.564Z,98940.31
2018-04-02T14:48:54.084Z,98933.66
2018-04-02T14:51:21.584Z,98926.89
2018-04-02T14:53:49.128Z,98929.41
2018-04-02T14:56:16.700Z,98923.39
2018-04-02T14:58:44.189Z,98914.31
2018-04-02T15:01:11.684Z,98903.88
2018-04-02T15:03:39.159Z,98905.86
2018-04-02T15:06:06.678Z,98912.05
2018-04-02T15:08:34.189Z,98898.47
2018-04-02T15:11:01.643Z,98900.25
2018-04-02T15:13:29.118Z,98895.31
2018-04-02T15:15:56.566Z,98887.19
2018-04-02T15:18:24.099Z,98876.77
2018-04-02T15:20:51.556Z,98867.68
2018-04-02T15:23:19.034Z,98859.96
2018-04-02T15:25:46.492Z,98851.09
2018-04-02T15:28:13.977Z,98846.70
2018-04-02T15:30:41.443Z,98835.95
2018-04-02T15:33:08.919Z,98851.73
2018-04-02T15:35:36.372Z,98843.93
2018-04-02T15:38:03.847Z,98848.20
2018-04-02T15:40:31.310Z,98848.17
2018-04-02T15:42:58.778Z,98854.53
2018-04-02T15:45:26.227Z,98844.00
2018-04-02T15:47:53.702Z,98846.73
2018-04-02T15:50:21.150Z,98838.06
2018-04-02T15:52:49.476Z,98830.40
2018-04-02T15:55:16.938Z,98834.86
2018-04-02T15:57:44.416Z,98819.70
2018-04-02T16:00:11.945Z,98819.05
2018-04-02T16:02:39.472Z,98806.31
2018-04-02T16:05:06.968Z,98802.92
2018-04-02T16:07:34.525Z,98812.32
2018-04-02T16:10:02.048Z,98806.19
2018-04-02T16:12:29.552Z,98792.41
2018-04-02T16:14:57.082Z,98793.47
2018-04-02T16:17:24.562Z,98784.31
2018-04-02T16:19:52.051Z,98786.76
2018-04-02T16:22:19.576Z,98768.06
2018-04-02T16:24:47.084Z,98775.78
2018-04-02T16:27:14.827Z,98771.77
2018-04-02T16:29:42.360Z,98763.86
2018-04-02T16:32:09.847Z,98762.53
2018-04-02T16:34:37.370Z,98757.57
2018-04-02T16:37:04.902Z,98756.59
2018-04-02T16:39:32.403Z,98749.45
2018-04-02T16:41:59.934Z,98746.17
2018-04-02T16:44:27.513Z,98747.59
2018-04-02T16:46:55.092Z,98749.39
2018-04-02T16:49:22.616Z,98750.56
2018-04-02T16:51:50.117Z,98765.52
2018-04-02T16:54:17.621Z,98764.97
2018-04-02T16:56:45.120Z,98761.53
2018-04-02T16:59:12.596Z,98764.10
2018-04-02T17:01:40.102Z,98764.13
2018-04-02T17:04:07.657Z,98761.12
2018-04-02T17:06:35.162Z,98762.59
2018-04-02T17:09:02.674Z,98765.95
2018-04-02T17:11:30.176Z,98765.80
2018-04-02T17:13:57.692Z,98768.70
2018-04-02T17:16:25.596Z,98769.70
2018-04-02T17:18:53.102Z,98767.56
2018-04-02T17:21:20.600Z,98773.95
2018-04-02T17:23:48.129Z,98758.75
2018-04-02T17:26:15.637Z,98762.88
2018-04-02T17:28:43.188Z,98763.09
2018-04-02T17:31:10.644Z,98754.94
2018-04-02T17:33:38.133Z,98746.64
2018-04-02T17:36:05.624Z,98741.39
2018-04-02T17:38:33.124Z,98735.87
2018-04-02T17:41:00.631Z,98742.34
2018-04-02T17:43:28.117Z,98740.04
2018-04-02T17:45:55.645Z,98746.35
2018-04-02T17:48:23.152Z,98740.70
2018-04-02T17:50:50.616Z,98732.62
2018-04-02T17:53:18.080Z,98727.25
2018-04-02T17:55:45.555Z,98725.51
2018-04-02T17:58:13.032Z,98719.14
2018-04-02T18:00:40.522Z,98724.33
2018-04-02T18:03:07.983Z,98730.64
2018-04-02T18:05:35.483Z,98745.04
2018-04-02T18:08:03.235Z,98742.84
2018-04-02T18:10:30.816Z,98740.44
2018-04-02T18:12:59.253Z,98734.94
2018-04-02T18:15:26.728Z,98733.17
2018-04-02T18:17:54.196Z,98738.59
2018-04-02T18:20:21.666Z,98733.63
2018-04-02T18:22:49.276Z,98723.83
2018-04-02T18:25:16.800Z,98720.73
2018-04-02T18:27:44.277Z,98705.59
2018-04-02T18:30:11.856Z,98705.96
2018-04-02T18:32:39.368Z,98704.55
2018-04-02T18:35:06.874Z,98708.23
2018-04-02T18:37:34.334Z,98708.19
2018-04-02T18:40:01.811Z,98699.20
2018-04-02T18:42:29.273Z,98705.05
2018-04-02T18:44:56.747Z,98706.27
2018-04-02T18:47:24.999Z,98740.52
2018-04-02T18:49:52.479Z,98741.42
2018-04-02T18:52:19.931Z,98738.42
2018-04-02T18:54:47.402Z,98730.72
2018-04-02T18:57:14.851Z,98735.52
2018-04-02T18:59:42.320Z,98732.78
2018-04-02T19:02:09.768Z,98733.15
2018-04-02T19:04:37.242Z,98732.17
2018-04-02T19:07:04.704Z,98734.41
2018-04-02T19:09:32.209Z,98745.44
2018-04-02T19:11:59.668Z,98744.84
2018-04-02T19:14:27.161Z,98738.88
2018-04-02T19:16:54.615Z,98733.80
2018-04-02T19:19:22.088Z,98730.90
2018-04-02T19:21:49.571Z,98734.66
2018-04-02T19:24:17.027Z,98734.23
2018-04-02T19:26:44.495Z,98746.27
2018-04-02T19:29:11.950Z,98738.33
2018-04-02T19:31:39.427Z,98733.34
2018-04-02T19:34:06.883Z,98748.19
2018-04-02T19:36:34.355Z,98739.30
2018-04-02T19:39:01.811Z,98742.66
2018-04-02T19:41:29.290Z,98739.92
2018-04-02T19:43:56.747Z,98730.95
2018-04-02T19:46:24.232Z,98741.66
2018-04-02T19:48:51.688Z,98734.55
2018-04-02T19:51:19.168Z,98730.19
2018-04-02T19:53:46.632Z,98727.86
2018-04-02T19:56:14.108Z,98724.68
2018-04-02T19:58:41.560Z,98725.20
2018-04-02T20:01:09.034Z,98718.53
2018-04-02T20:03:36.524Z,98719.25
2018-04-02T20:06:04.039Z,98718.63
2018-04-02T20:08:31.491Z,98715.36
2018-04-02T20:10:58.973Z,98720.53
2018-04-02T20:13:26.428Z,98718.84
2018-04-02T20:15:53.911Z,98726.98
2018-04-02T20:18:21.407Z,98719.55
2018-04-02T20:20:48.888Z,98714.06
2018-04-02T20:23:16.346Z,98708.92
2018-04-02T20:25:44.615Z,98705.49
2018-04-02T20:28:12.626Z,98694.66
2018-04-02T20:30:40.104Z,98701.34
2018-04-02T20:33:07.560Z,98705.97
2018-04-02T20:35:35.030Z,98703.31
2018-04-02T20:38:02.507Z,98707.16
2018-04-02T20:40:30.042Z,98705.20
2018-04-02T20:42:57.494Z,98719.00
2018-04-02T20:45:24.947Z,98713.02
2018-04-02T20:47:52.419Z,98713.02
2018-04-02T20:50:19.870Z,98712.71
2018-04-02T20:52:47.343Z,98713.98
2018-04-02T20:55:14.800Z,98714.44
2018-04-02T20:57:42.287Z,98719.42
2018-04-02T21:00:09.751Z,98716.89
2018-04-02T21:02:37.227Z,98715.53
2018-04-02T21:05:04.682Z,98722.78
2018-04-02T21:07:32.158Z,98719.66
2018-04-02T21:09:59.615Z,98717.84
2018-04-02T21:12:27.091Z,98725.21
2018-04-02T21:14:54.547Z,98722.59
2018-04-02T21:17:22.027Z,98723.04
2018-04-02T21:19:49.486Z,98718.41
2018-04-02T21:22:16.983Z,98715.12
2018-04-02T21:24:44.440Z,98721.86
2018-04-02T21:27:11.914Z,98712.11
2018-04-02T21:29:39.371Z,98715.42
2018-04-02T21:32:06.846Z,98720.86
2018-04-02T21:34:34.298Z,98713.64
2018-04-02T21:37:01.776Z,98709.92
2018-04-02T21:39:29.245Z,98708.66
2018-04-02T21:41:56.740Z,98709.20
2018-04-02T21:44:24.203Z,98712.27
2018-04-02T21:46:51.678Z,98711.73
2018-04-02T21:49:19.143Z,98708.52
2018-04-02T21:51:46.638Z,98702.20
2018-04-02T21:54:14.092Z,98700.07
2018-04-02T21:56:41.582Z,98709.44
2018-04-02T21:59:09.043Z,98713.91
2018-04-02T22:01:36.518Z,98714.59
2018-04-02T22:04:03.975Z,98708.99
2018-04-02T22:06:43.427Z,98707.50
2018-04-02T22:09:10.891Z,98712.83
2018-04-02T22:11:38.347Z,98713.66
2018-04-02T22:14:05.820Z,98712.31
2018-04-02T22:16:33.282Z,98717.74
2018-04-02T22:19:00.755Z,98718.22
2018-04-02T22:21:28.215Z,98720.36
2018-04-02T22:23:55.694Z,98718.76
2018-04-02T22:26:23.147Z,98721.84
2018-04-02T22:28:50.626Z,98718.48
2018-04-02T22:31:18.084Z,98719.37
2018-04-02T22:33:45.563Z,98715.92
2018-04-02T22:36:13.028Z,98723.19
2018-04-02T22:38:40.506Z,98728.34
2018-04-02T22:41:07.962Z,98723.77
2018-04-02T22:43:35.435Z,98728.34
2018-04-02T22:46:02.892Z,98725.95
2018-04-02T22:48:30.363Z,98727.70
2018-04-02T22:50:57.826Z,98730.80
2018-04-02T22:53:25.303Z,98729.36
2018-04-02T22:55:52.751Z,98732.96
2018-04-02T22:58:20.227Z,98726.72
2018-04-02T23:00:47.683Z,98732.78
2018-04-02T23:03:15.164Z,98727.08
2018-04-02T23:05:42.631Z,98730.59
2018-04-02T23:08:10.115Z,98730.67
2018-04-02T23:10:37.566Z,98728.77
2018-04-02T23:13:05.039Z,98727.89
2018-04-02T23:15:32.487Z,98736.37
2018-04-02T23:17:59.959Z,98737.54
2018-04-02T23:20:27.418Z,98738.88
2018-04-02T23:22:54.904Z,98731.61
2018-04-02T23:25:22.360Z,98737.84
2018-04-02T23:27:49.819Z,98737.34
2018-04-02T23:30:17.304Z,98743.17
2018-04-02T23:32:44.763Z,98735.27
2018-04-02T23:35:12.231Z,98736.59
2018-04-02T23:37:39.682Z,98744.42
2018-04-02T23:40:07.150Z,98743.55
2018-04-02T23:42:34.610Z,98748.75
2018-04-02T23:45:02.088Z,98745.13
2018-04-02T23:47:29.540Z,98743.86
2018-04-02T23:49:57.019Z,98745.08
2018-04-02T23:52:24.475Z,98742.84
2018-04-02T23:54:51.951Z,98747.77
2018-04-02T23:57:19.417Z,98740.84
2018-04-02T23:59:46.895Z,98751.00
